createdAt,value
2023-04-19T00:00:22.000Z,90.03
2023-04-19T00:01:26.000Z,89.52
2023-04-19T00:02:30.000Z,89.31
2023-04-19T00:03:34.000Z,89.31
2023-04-19T00:04:38.000Z,89.83
2023-04-19T00:05:42.000Z,90.28
2023-04-19T00:06:46.000Z,90.28
2023-04-19T00:07:50.000Z,90.69
2023-04-19T00:08:55.000Z,89.97
2023-04-19T00:09:58.000Z,89.97
2023-04-19T00:11:03.000Z,89.46
2023-04-19T00:12:06.000Z,89.56
2023-04-19T00:13:10.000Z,89.66
2023-04-19T00:14:14.000Z,89.87
2023-04-19T00:15:18.000Z,89.87
2023-04-19T00:16:22.000Z,90.08
2023-04-19T00:17:26.000Z,90.08
2023-04-19T00:18:30.000Z,90.59
2023-04-19T00:19:34.000Z,89.76
2023-04-19T00:20:38.000Z,89.56
2023-04-19T00:21:42.000Z,89.36
2023-04-19T00:22:46.000Z,89.56
2023-04-19T00:23:50.000Z,88.74
2023-04-19T00:24:54.000Z,89.04
2023-04-19T00:25:58.000Z,89.04
2023-04-19T00:27:02.000Z,89.36
2023-04-19T00:28:06.000Z,88.43
2023-04-19T00:29:10.000Z,88.33
2023-04-19T00:30:14.000Z,88.23
2023-04-19T00:31:18.000Z,88.68
2023-04-19T00:32:22.000Z,88.98
2023-04-19T00:33:26.000Z,89.4
2023-04-19T00:34:30.000Z,89.6
2023-04-19T00:35:34.000Z,89.6
2023-04-19T00:36:38.000Z,89.19
2023-04-19T00:37:42.000Z,88.89
2023-04-19T00:38:46.000Z,88.98
2023-04-19T00:39:50.000Z,88.89
2023-04-19T00:40:54.000Z,88.78
2023-04-19T00:41:58.000Z,89.09
2023-04-19T00:43:02.000Z,88.68
2023-04-19T00:44:07.000Z,88.78
2023-04-19T00:45:11.000Z,89.23
2023-04-19T00:46:14.000Z,89.54
2023-04-19T00:47:18.000Z,89.34
2023-04-19T00:48:22.000Z,88.62
2023-04-19T00:49:26.000Z,89.03
2023-04-19T00:50:30.000Z,89.23
2023-04-19T00:51:34.000Z,89.44
2023-04-19T00:52:38.000Z,89.75
2023-04-19T00:53:42.000Z,90.06
2023-04-19T00:54:46.000Z,90.06
2023-04-19T00:55:50.000Z,90.16
2023-04-19T00:56:54.000Z,90.36
2023-04-19T00:57:58.000Z,90.57
2023-04-19T00:59:02.000Z,90.06
2023-04-19T01:00:06.000Z,89.95
2023-04-19T01:01:10.000Z,90.26
2023-04-19T01:02:14.000Z,90.81
2023-04-19T01:03:18.000Z,91.23
2023-04-19T01:04:22.000Z,91.64
2023-04-19T01:05:26.000Z,91.53
2023-04-19T01:06:30.000Z,91.74
2023-04-19T01:07:34.000Z,91.13
2023-04-19T01:08:38.000Z,91.33
2023-04-19T01:09:42.000Z,90.92
2023-04-19T01:10:47.000Z,90.51
2023-04-19T01:11:51.000Z,90.72
2023-04-19T01:12:55.000Z,91.06
2023-04-19T01:13:58.000Z,89.94
2023-04-19T01:15:03.000Z,89.94
2023-04-19T01:16:06.000Z,90.34
2023-04-19T01:17:10.000Z,89.94
2023-04-19T01:18:14.000Z,90.03
2023-04-19T01:19:18.000Z,90.14
2023-04-19T01:20:22.000Z,89.73
2023-04-19T01:21:26.000Z,90.24
2023-04-19T01:22:30.000Z,90.75
2023-04-19T01:23:34.000Z,90.75
2023-04-19T01:24:38.000Z,90.66
2023-04-19T01:25:42.000Z,90.28
2023-04-19T01:26:46.000Z,90.69
2023-04-19T01:27:50.000Z,90.8
2023-04-19T01:28:54.000Z,90.9
2023-04-19T01:29:58.000Z,91.42
2023-04-19T01:31:02.000Z,91.72
2023-04-19T01:32:07.000Z,91.11
2023-04-19T01:33:10.000Z,91.42
2023-04-19T01:34:14.000Z,91.52
2023-04-19T01:35:18.000Z,91.56
2023-04-19T01:36:22.000Z,90.9
2023-04-19T01:37:26.000Z,91.21
2023-04-19T01:38:30.000Z,91.21
2023-04-19T01:39:34.000Z,91.42
2023-04-19T01:40:38.000Z,91.52
2023-04-19T01:41:42.000Z,91.93
2023-04-19T01:42:46.000Z,92.24
2023-04-19T01:43:50.000Z,92.49
2023-04-19T01:44:54.000Z,92.18
2023-04-19T01:45:58.000Z,92.29
2023-04-19T01:47:02.000Z,92.18
2023-04-19T01:48:06.000Z,92.69
2023-04-19T01:49:10.000Z,92.49
2023-04-19T01:50:14.000Z,92.38
2023-04-19T01:51:18.000Z,92.38
2023-04-19T01:52:22.000Z,92.38
2023-04-19T01:53:26.000Z,92.18
2023-04-19T01:54:30.000Z,92.29
2023-04-19T01:55:34.000Z,92.29
2023-04-19T01:56:38.000Z,92.49
2023-04-19T01:57:42.000Z,92.69
2023-04-19T01:58:46.000Z,92.59
2023-04-19T01:59:50.000Z,92.59
2023-04-19T02:00:53.000Z,93.01
2023-04-19T02:01:57.000Z,93.11
2023-04-19T02:03:02.000Z,93.11
2023-04-19T02:04:06.000Z,93.41
2023-04-19T02:05:10.000Z,93.73
2023-04-19T02:06:14.000Z,93.66
2023-04-19T02:07:18.000Z,93.46
2023-04-19T02:08:22.000Z,93.05
2023-04-19T02:09:26.000Z,93.15
2023-04-19T02:10:30.000Z,93.46
2023-04-19T02:11:34.000Z,93.56
2023-04-19T02:12:38.000Z,93.46
2023-04-19T02:13:42.000Z,93.56
2023-04-19T02:14:46.000Z,93.46
2023-04-19T02:15:50.000Z,93.35
2023-04-19T02:16:54.000Z,93.35
2023-04-19T02:17:58.000Z,93.77
2023-04-19T02:19:02.000Z,94.28
2023-04-19T02:20:06.000Z,93.98
2023-04-19T02:21:10.000Z,93.46
2023-04-19T02:22:14.000Z,93.56
2023-04-19T02:23:18.000Z,93.77
2023-04-19T02:24:22.000Z,94.18
2023-04-19T02:25:26.000Z,94.18
2023-04-19T02:26:30.000Z,94.18
2023-04-19T02:27:34.000Z,94.49
2023-04-19T02:28:38.000Z,94.38
2023-04-19T02:29:42.000Z,94.28
2023-04-19T02:30:46.000Z,93.98
2023-04-19T02:31:50.000Z,94.08
2023-04-19T02:32:54.000Z,94.18
2023-04-19T02:33:57.000Z,94.18
2023-04-19T02:35:02.000Z,94.28
2023-04-19T02:36:06.000Z,94.8
2023-04-19T02:37:10.000Z,95.21
2023-04-19T02:38:14.000Z,95.62
2023-04-19T02:39:18.000Z,95.83
2023-04-19T02:40:22.000Z,95.73
2023-04-19T02:41:26.000Z,95.25
2023-04-19T02:42:30.000Z,95.46
2023-04-19T02:43:34.000Z,95.46
2023-04-19T02:44:38.000Z,95.56
2023-04-19T02:45:42.000Z,95.77
2023-04-19T02:46:46.000Z,95.98
2023-04-19T02:47:50.000Z,96.28
2023-04-19T02:48:54.000Z,96.49
2023-04-19T02:49:58.000Z,96.28
2023-04-19T02:51:02.000Z,96.39
2023-04-19T02:52:06.000Z,96.59
2023-04-19T02:53:10.000Z,96.49
2023-04-19T02:54:14.000Z,96.59
2023-04-19T02:55:18.000Z,96.8
2023-04-19T02:56:22.000Z,96.91
2023-04-19T02:57:26.000Z,96.59
2023-04-19T02:58:30.000Z,96.7
2023-04-19T02:59:34.000Z,96.39
2023-04-19T03:00:38.000Z,96.49
2023-04-19T03:01:42.000Z,96.39
2023-04-19T03:02:45.000Z,96.59
2023-04-19T03:03:50.000Z,96.7
2023-04-19T03:04:54.000Z,96.74
2023-04-19T03:05:58.000Z,96.95
2023-04-19T03:07:02.000Z,97.05
2023-04-19T03:08:06.000Z,96.84
2023-04-19T03:09:10.000Z,96.95
2023-04-19T03:10:14.000Z,96.64
2023-04-19T03:11:18.000Z,96.64
2023-04-19T03:12:22.000Z,96.64
2023-04-19T03:13:26.000Z,96.95
2023-04-19T03:14:30.000Z,96.84
2023-04-19T03:15:34.000Z,96.53
2023-04-19T03:16:38.000Z,96.44
2023-04-19T03:17:42.000Z,96.44
2023-04-19T03:18:46.000Z,96.53
2023-04-19T03:19:50.000Z,96.64
2023-04-19T03:20:54.000Z,96.95
2023-04-19T03:21:58.000Z,97.16
2023-04-19T03:23:02.000Z,97.26
2023-04-19T03:24:05.000Z,97.47
2023-04-19T03:25:09.000Z,97.26
2023-04-19T03:26:13.000Z,96.53
2023-04-19T03:27:17.000Z,96.74
2023-04-19T03:28:21.000Z,97.05
2023-04-19T03:29:25.000Z,97.26
2023-04-19T03:30:29.000Z,97.26
2023-04-19T03:31:33.000Z,96.95
2023-04-19T03:32:37.000Z,96.74
2023-04-19T03:33:41.000Z,96.95
2023-04-19T03:34:45.000Z,97.05
2023-04-19T03:35:49.000Z,96.99
2023-04-19T03:36:53.000Z,97.3
2023-04-19T03:37:57.000Z,96.99
2023-04-19T03:39:01.000Z,96.99
2023-04-19T03:40:05.000Z,96.37
2023-04-19T03:41:09.000Z,96.69
2023-04-19T03:42:13.000Z,96.99
2023-04-19T03:43:17.000Z,96.89
2023-04-19T03:44:21.000Z,96.79
2023-04-19T03:45:25.000Z,96.48
2023-04-19T03:46:29.000Z,96.27
2023-04-19T03:47:33.000Z,96.17
2023-04-19T03:48:37.000Z,96.37
2023-04-19T03:49:41.000Z,96.17
2023-04-19T03:50:45.000Z,96.48
2023-04-19T03:51:49.000Z,96.58
2023-04-19T03:52:53.000Z,96.89
2023-04-19T03:53:57.000Z,96.69
2023-04-19T03:55:01.000Z,96.69
2023-04-19T03:56:05.000Z,96.58
2023-04-19T03:57:09.000Z,96.69
2023-04-19T03:58:13.000Z,96.99
2023-04-19T03:59:17.000Z,96.89
2023-04-19T04:00:21.000Z,96.31
2023-04-19T04:01:25.000Z,95.9
2023-04-19T04:02:29.000Z,95.7
2023-04-19T04:03:33.000Z,95.7
2023-04-19T04:04:37.000Z,95.28
2023-04-19T04:05:41.000Z,94.97
2023-04-19T04:06:45.000Z,95.18
2023-04-19T04:07:48.000Z,95.49
2023-04-19T04:08:52.000Z,95.7
2023-04-19T04:09:56.000Z,95.9
2023-04-19T04:11:00.000Z,95.8
2023-04-19T04:12:05.000Z,96.11
2023-04-19T04:13:09.000Z,96.62
2023-04-19T04:14:13.000Z,96.94
2023-04-19T04:15:17.000Z,96.47
2023-04-19T04:16:21.000Z,96.11
2023-04-19T04:17:25.000Z,95.64
2023-04-19T04:18:29.000Z,95.64
2023-04-19T04:19:33.000Z,95.64
2023-04-19T04:20:37.000Z,95.64
2023-04-19T04:21:40.000Z,95.53
2023-04-19T04:22:44.000Z,95.22
2023-04-19T04:23:48.000Z,95.43
2023-04-19T04:24:52.000Z,94.92
2023-04-19T04:25:56.000Z,94.81
2023-04-19T04:27:00.000Z,95.12
2023-04-19T04:28:04.000Z,95.64
2023-04-19T04:29:08.000Z,95.32
2023-04-19T04:30:12.000Z,95.32
2023-04-19T04:31:16.000Z,95.64
2023-04-19T04:32:20.000Z,94.81
2023-04-19T04:33:24.000Z,94.4
2023-04-19T04:34:28.000Z,94.81
2023-04-19T04:35:32.000Z,93.98
2023-04-19T04:36:36.000Z,94.19
2023-04-19T04:37:40.000Z,94.5
2023-04-19T04:38:44.000Z,93.57
2023-04-19T04:39:48.000Z,92.64
2023-04-19T04:40:52.000Z,91.92
2023-04-19T04:41:56.000Z,91.71
2023-04-19T04:43:00.000Z,92.13
2023-04-19T04:44:04.000Z,92.13
2023-04-19T04:45:08.000Z,92.02
2023-04-19T04:46:12.000Z,92.23
2023-04-19T04:47:16.000Z,92.13
2023-04-19T04:48:20.000Z,92.74
2023-04-19T04:49:24.000Z,92.54
2023-04-19T04:50:28.000Z,92.95
2023-04-19T04:51:32.000Z,92.74
2023-04-19T04:52:36.000Z,92.54
2023-04-19T04:53:40.000Z,93.05
2023-04-19T04:54:44.000Z,91.71
2023-04-19T04:55:48.000Z,90.89
2023-04-19T04:56:52.000Z,91.09
2023-04-19T04:57:56.000Z,91.3
2023-04-19T04:59:00.000Z,91.46
2023-04-19T05:00:04.000Z,90.12
2023-04-19T05:01:08.000Z,90.74
2023-04-19T05:02:12.000Z,91.16
2023-04-19T05:03:16.000Z,90.12
2023-04-19T05:04:20.000Z,90.12
2023-04-19T05:05:24.000Z,90.43
2023-04-19T05:06:28.000Z,90.43
2023-04-19T05:07:32.000Z,88.37
2023-04-19T05:08:36.000Z,87.99
2023-04-19T05:09:40.000Z,87.54
2023-04-19T05:10:44.000Z,87.95
2023-04-19T05:11:47.000Z,87.54
2023-04-19T05:12:51.000Z,84.75
2023-04-19T05:13:55.000Z,83.83
2023-04-19T05:14:59.000Z,83.41
2023-04-19T05:16:03.000Z,83.62
2023-04-19T05:17:08.000Z,82.79
2023-04-19T05:18:11.000Z,84.03
2023-04-19T05:19:15.000Z,84.23
2023-04-19T05:20:20.000Z,82.38
2023-04-19T05:21:24.000Z,81.96
2023-04-19T05:22:28.000Z,81.24
2023-04-19T05:23:32.000Z,79.38
2023-04-19T05:24:36.000Z,79.59
2023-04-19T05:25:40.000Z,79.08
2023-04-19T05:26:44.000Z,79.08
2023-04-19T05:27:48.000Z,77.56
2023-04-19T05:28:52.000Z,77.04
2023-04-19T05:29:56.000Z,77.87
2023-04-19T05:31:00.000Z,78.28
2023-04-19T05:32:04.000Z,77.04
2023-04-19T05:33:08.000Z,78.28
2023-04-19T05:34:12.000Z,76.94
2023-04-19T05:35:15.000Z,77.67
2023-04-19T05:36:19.000Z,76.53
2023-04-19T05:37:23.000Z,77.25
2023-04-19T05:38:27.000Z,77.63
2023-04-19T05:39:31.000Z,77.63
2023-04-19T05:40:35.000Z,76.29
2023-04-19T05:41:39.000Z,75.81
2023-04-19T05:42:43.000Z,75.49
2023-04-19T05:43:47.000Z,76.73
2023-04-19T05:44:51.000Z,75.7
2023-04-19T05:45:55.000Z,75.19
2023-04-19T05:46:59.000Z,74.53
2023-04-19T05:48:03.000Z,73.91
2023-04-19T05:49:07.000Z,74.77
2023-04-19T05:50:11.000Z,73.64
2023-04-19T05:51:15.000Z,75.19
2023-04-19T05:52:19.000Z,76.01
2023-04-19T05:53:23.000Z,73.85
2023-04-19T05:54:27.000Z,74.46
2023-04-19T05:55:31.000Z,74.98
2023-04-19T05:56:35.000Z,74.36
2023-04-19T05:57:39.000Z,73.85
2023-04-19T05:58:43.000Z,73.64
2023-04-19T05:59:47.000Z,74.15
2023-04-19T06:00:51.000Z,74.15
2023-04-19T06:01:55.000Z,73.64
2023-04-19T06:02:59.000Z,73.95
2023-04-19T06:04:03.000Z,74.57
2023-04-19T06:05:07.000Z,73.54
2023-04-19T06:06:11.000Z,72.61
2023-04-19T06:07:15.000Z,73.85
2023-04-19T06:08:19.000Z,73.74
2023-04-19T06:09:23.000Z,73.74
2023-04-19T06:10:27.000Z,73.6
2023-04-19T06:11:31.000Z,74.22
2023-04-19T06:12:35.000Z,73.91
2023-04-19T06:13:39.000Z,71.71
2023-04-19T06:14:43.000Z,71.92
2023-04-19T06:15:47.000Z,71.09
2023-04-19T06:16:51.000Z,72.23
2023-04-19T06:17:55.000Z,71.09
2023-04-19T06:18:59.000Z,70.82
2023-04-19T06:20:03.000Z,71.54
2023-04-19T06:21:07.000Z,72.99
2023-04-19T06:22:11.000Z,71.64
2023-04-19T06:23:15.000Z,72.47
2023-04-19T06:24:19.000Z,72.64
2023-04-19T06:25:23.000Z,72.54
2023-04-19T06:26:27.000Z,73.02
2023-04-19T06:27:31.000Z,72.5
2023-04-19T06:28:35.000Z,71.47
2023-04-19T06:29:39.000Z,70.68
2023-04-19T06:30:43.000Z,71.51
2023-04-19T06:31:47.000Z,71.51
2023-04-19T06:32:51.000Z,71.54
2023-04-19T06:33:55.000Z,71.81
2023-04-19T06:34:59.000Z,72.95
2023-04-19T06:36:03.000Z,71.3
2023-04-19T06:37:07.000Z,70.57
2023-04-19T06:38:11.000Z,71.16
2023-04-19T06:39:15.000Z,70.17
2023-04-19T06:40:19.000Z,70.89
2023-04-19T06:41:23.000Z,71.2
2023-04-19T06:42:27.000Z,70.57
2023-04-19T06:43:31.000Z,71.09
2023-04-19T06:44:35.000Z,71.09
2023-04-19T06:45:39.000Z,71.02
2023-04-19T06:46:43.000Z,72.36
2023-04-19T06:47:47.000Z,72.06
2023-04-19T06:48:51.000Z,72.64
2023-04-19T06:49:55.000Z,72.44
2023-04-19T06:50:59.000Z,72.33
2023-04-19T06:52:03.000Z,72.33
2023-04-19T06:53:07.000Z,72.54
2023-04-19T06:54:12.000Z,73.36
2023-04-19T06:55:15.000Z,74.77
2023-04-19T06:56:19.000Z,72.71
2023-04-19T06:57:23.000Z,72.3
2023-04-19T06:58:27.000Z,71.78
2023-04-19T06:59:31.000Z,73.02
2023-04-19T07:00:35.000Z,72.44
2023-04-19T07:01:39.000Z,74.08
2023-04-19T07:02:43.000Z,74.05
2023-04-19T07:03:47.000Z,72.71
2023-04-19T07:04:51.000Z,73.22
2023-04-19T07:05:55.000Z,71.89
2023-04-19T07:06:59.000Z,70.75
2023-04-19T07:08:03.000Z,70.65
2023-04-19T07:09:07.000Z,71.16
2023-04-19T07:10:11.000Z,73.12
2023-04-19T07:11:15.000Z,73.81
2023-04-19T07:12:19.000Z,74.22
2023-04-19T07:13:23.000Z,73.4
2023-04-19T07:14:27.000Z,73.71
2023-04-19T07:15:31.000Z,73.68
2023-04-19T07:16:35.000Z,73.57
2023-04-19T07:17:39.000Z,70.37
2023-04-19T07:18:43.000Z,70.37
2023-04-19T07:19:47.000Z,70.07
2023-04-19T07:20:51.000Z,68.83
2023-04-19T07:21:55.000Z,70.28
2023-04-19T07:22:59.000Z,70.55
2023-04-19T07:24:03.000Z,69.31
2023-04-19T07:25:07.000Z,69.24
2023-04-19T07:26:11.000Z,69.65
2023-04-19T07:27:15.000Z,69.96
2023-04-19T07:28:19.000Z,69.55
2023-04-19T07:29:23.000Z,68.62
2023-04-19T07:30:27.000Z,69.86
2023-04-19T07:31:31.000Z,68.11
2023-04-19T07:32:35.000Z,68.32
2023-04-19T07:33:39.000Z,68.93
2023-04-19T07:34:43.000Z,68.8
2023-04-19T07:35:47.000Z,67.87
2023-04-19T07:36:51.000Z,68.9
2023-04-19T07:37:55.000Z,67.18
2023-04-19T07:38:58.000Z,67.6
2023-04-19T07:40:02.000Z,67.08
2023-04-19T07:41:06.000Z,68.59
2023-04-19T07:42:10.000Z,70.0
2023-04-19T07:43:14.000Z,69.79
2023-04-19T07:44:18.000Z,65.99
2023-04-19T07:45:22.000Z,66.3
2023-04-19T07:46:26.000Z,69.25
2023-04-19T07:47:30.000Z,67.19
2023-04-19T07:48:34.000Z,64.93
2023-04-19T07:49:38.000Z,64.72
2023-04-19T07:50:42.000Z,64.65
2023-04-19T07:51:46.000Z,65.44
2023-04-19T07:52:50.000Z,65.34
2023-04-19T07:53:54.000Z,64.72
2023-04-19T07:54:58.000Z,66.16
2023-04-19T07:56:02.000Z,65.03
2023-04-19T07:57:06.000Z,63.69
2023-04-19T07:58:10.000Z,64.72
2023-04-19T07:59:14.000Z,65.86
2023-04-19T08:00:18.000Z,66.96
2023-04-19T08:01:22.000Z,67.06
2023-04-19T08:02:26.000Z,64.59
2023-04-19T08:03:30.000Z,65.62
2023-04-19T08:04:34.000Z,65.69
2023-04-19T08:05:38.000Z,67.33
2023-04-19T08:06:42.000Z,65.38
2023-04-19T08:07:46.000Z,65.66
2023-04-19T08:08:50.000Z,64.73
2023-04-19T08:09:54.000Z,64.01
2023-04-19T08:10:58.000Z,64.32
2023-04-19T08:12:02.000Z,64.32
2023-04-19T08:13:06.000Z,64.43
2023-04-19T08:14:10.000Z,64.63
2023-04-19T08:15:14.000Z,63.78
2023-04-19T08:16:18.000Z,64.4
2023-04-19T08:17:22.000Z,62.85
2023-04-19T08:18:26.000Z,62.96
2023-04-19T08:19:30.000Z,65.01
2023-04-19T08:20:34.000Z,63.37
2023-04-19T08:21:38.000Z,64.12
2023-04-19T08:22:42.000Z,65.05
2023-04-19T08:23:46.000Z,66.14
2023-04-19T08:24:50.000Z,64.29
2023-04-19T08:25:54.000Z,64.09
2023-04-19T08:26:58.000Z,66.86
2023-04-19T08:28:02.000Z,66.22
2023-04-19T08:29:06.000Z,65.26
2023-04-19T08:30:10.000Z,64.23
2023-04-19T08:31:14.000Z,64.23
2023-04-19T08:32:18.000Z,66.19
2023-04-19T08:33:22.000Z,65.26
2023-04-19T08:34:26.000Z,64.44
2023-04-19T08:35:30.000Z,65.47
2023-04-19T08:36:34.000Z,64.03
2023-04-19T08:37:38.000Z,63.54
2023-04-19T08:38:42.000Z,66.8
2023-04-19T08:39:46.000Z,66.7
2023-04-19T08:40:50.000Z,66.19
2023-04-19T08:41:54.000Z,66.46
2023-04-19T08:42:57.000Z,64.13
2023-04-19T08:44:01.000Z,66.28
2023-04-19T08:45:05.000Z,65.84
2023-04-19T08:46:09.000Z,65.92
2023-04-19T08:47:13.000Z,62.23
2023-04-19T08:48:17.000Z,62.98
2023-04-19T08:49:21.000Z,65.41
2023-04-19T08:50:25.000Z,65.17
2023-04-19T08:51:30.000Z,65.37
2023-04-19T08:52:34.000Z,65.48
2023-04-19T08:53:37.000Z,63.64
2023-04-19T08:54:41.000Z,64.86
2023-04-19T08:55:46.000Z,65.48
2023-04-19T08:56:50.000Z,64.82
2023-04-19T08:57:53.000Z,63.49
2023-04-19T08:58:57.000Z,64.2
2023-04-19T09:00:01.000Z,67.73
2023-04-19T09:01:05.000Z,65.86
2023-04-19T09:02:09.000Z,67.36
2023-04-19T09:03:13.000Z,64.67
2023-04-19T09:04:17.000Z,62.35
2023-04-19T09:05:21.000Z,62.37
2023-04-19T09:06:25.000Z,63.4
2023-04-19T09:07:29.000Z,61.99
2023-04-19T09:08:33.000Z,65.75
2023-04-19T09:09:37.000Z,64.12
2023-04-19T09:10:41.000Z,62.68
2023-04-19T09:11:45.000Z,64.22
2023-04-19T09:12:49.000Z,63.7
2023-04-19T09:13:53.000Z,64.01
2023-04-19T09:14:57.000Z,64.12
2023-04-19T09:16:01.000Z,64.12
2023-04-19T09:17:05.000Z,63.78
2023-04-19T09:18:09.000Z,62.55
2023-04-19T09:19:13.000Z,64.98
2023-04-19T09:20:17.000Z,62.21
2023-04-19T09:21:21.000Z,61.32
2023-04-19T09:22:25.000Z,62.32
2023-04-19T09:23:29.000Z,62.42
2023-04-19T09:24:33.000Z,64.36
2023-04-19T09:25:37.000Z,63.21
2023-04-19T09:26:41.000Z,66.31
2023-04-19T09:27:45.000Z,64.27
2023-04-19T09:28:49.000Z,62.61
2023-04-19T09:29:53.000Z,61.24
2023-04-19T09:30:57.000Z,62.66
2023-04-19T09:32:01.000Z,63.28
2023-04-19T09:33:05.000Z,61.1
2023-04-19T09:34:09.000Z,63.44
2023-04-19T09:35:13.000Z,63.57
2023-04-19T09:36:17.000Z,61.76
2023-04-19T09:37:21.000Z,62.24
2023-04-19T09:38:25.000Z,62.14
2023-04-19T09:39:29.000Z,60.99
2023-04-19T09:40:33.000Z,62.7
2023-04-19T09:41:37.000Z,62.05
2023-04-19T09:42:41.000Z,60.28
2023-04-19T09:43:45.000Z,57.97
2023-04-19T09:44:49.000Z,58.17
2023-04-19T09:45:53.000Z,59.37
2023-04-19T09:46:57.000Z,61.58
2023-04-19T09:48:01.000Z,57.93
2023-04-19T09:49:05.000Z,59.27
2023-04-19T09:50:09.000Z,60.46
2023-04-19T09:51:13.000Z,58.62
2023-04-19T09:52:17.000Z,58.65
2023-04-19T09:53:21.000Z,58.96
2023-04-19T09:54:25.000Z,58.86
2023-04-19T09:55:29.000Z,59.78
2023-04-19T09:56:33.000Z,60.6
2023-04-19T09:57:37.000Z,59.55
2023-04-19T09:58:41.000Z,59.27
2023-04-19T09:59:45.000Z,62.4
2023-04-19T10:00:49.000Z,60.77
2023-04-19T10:01:53.000Z,60.85
2023-04-19T10:02:57.000Z,60.23
2023-04-19T10:04:01.000Z,60.74
2023-04-19T10:05:05.000Z,61.28
2023-04-19T10:06:09.000Z,62.4
2023-04-19T10:07:13.000Z,58.39
2023-04-19T10:08:17.000Z,60.44
2023-04-19T10:09:21.000Z,59.44
2023-04-19T10:10:25.000Z,57.15
2023-04-19T10:11:29.000Z,59.06
2023-04-19T10:12:33.000Z,58.93
2023-04-19T10:13:37.000Z,59.64
2023-04-19T10:14:41.000Z,57.2
2023-04-19T10:15:45.000Z,57.98
2023-04-19T10:16:50.000Z,55.84
2023-04-19T10:17:54.000Z,57.86
2023-04-19T10:18:58.000Z,57.62
2023-04-19T10:20:02.000Z,57.6
2023-04-19T10:21:06.000Z,59.52
2023-04-19T10:22:10.000Z,59.77
2023-04-19T10:23:14.000Z,58.54
2023-04-19T10:24:18.000Z,59.72
2023-04-19T10:25:22.000Z,59.95
2023-04-19T10:26:26.000Z,60.77
2023-04-19T10:27:30.000Z,60.53
2023-04-19T10:28:34.000Z,61.09
2023-04-19T10:29:38.000Z,58.87
2023-04-19T10:30:42.000Z,57.07
2023-04-19T10:31:46.000Z,59.39
2023-04-19T10:32:50.000Z,61.19
2023-04-19T10:33:54.000Z,59.16
2023-04-19T10:34:58.000Z,57.39
2023-04-19T10:36:02.000Z,57.67
2023-04-19T10:37:06.000Z,58.26
2023-04-19T10:38:10.000Z,56.65
2023-04-19T10:39:14.000Z,57.93
2023-04-19T10:40:19.000Z,56.94
2023-04-19T10:41:23.000Z,59.39
2023-04-19T10:42:27.000Z,56.38
2023-04-19T10:43:31.000Z,56.86
2023-04-19T10:44:35.000Z,57.24
2023-04-19T10:45:39.000Z,54.97
2023-04-19T10:46:43.000Z,56.86
2023-04-19T10:47:47.000Z,57.57
2023-04-19T10:48:56.000Z,57.45
2023-04-19T10:50:00.000Z,58.23
2023-04-19T10:51:04.000Z,57.19
2023-04-19T10:52:08.000Z,56.17
2023-04-19T10:53:12.000Z,57.39
2023-04-19T10:54:16.000Z,57.55
2023-04-19T10:55:21.000Z,56.88
2023-04-19T10:56:25.000Z,59.3
2023-04-19T10:57:29.000Z,57.01
2023-04-19T10:58:33.000Z,55.56
2023-04-19T10:59:37.000Z,56.65
2023-04-19T11:00:41.000Z,56.04
2023-04-19T11:01:45.000Z,56.99
2023-04-19T11:02:49.000Z,57.42
2023-04-19T11:03:53.000Z,57.65
2023-04-19T11:04:57.000Z,58.7
2023-04-19T11:06:01.000Z,57.88
2023-04-19T11:07:05.000Z,60.46
2023-04-19T11:08:09.000Z,60.26
2023-04-19T11:09:14.000Z,60.19
2023-04-19T11:10:18.000Z,59.85
2023-04-19T11:11:22.000Z,59.85
2023-04-19T11:12:26.000Z,59.82
2023-04-19T11:13:30.000Z,60.13
2023-04-19T11:14:33.000Z,57.98
2023-04-19T11:15:37.000Z,59.0
2023-04-19T11:16:42.000Z,59.05
2023-04-19T11:17:46.000Z,59.78
2023-04-19T11:18:49.000Z,57.42
2023-04-19T11:19:53.000Z,57.29
2023-04-19T11:20:57.000Z,59.17
2023-04-19T11:22:01.000Z,57.26
2023-04-19T11:23:05.000Z,59.33
2023-04-19T11:24:09.000Z,59.66
2023-04-19T11:25:13.000Z,57.34
2023-04-19T11:26:17.000Z,58.09
2023-04-19T11:27:21.000Z,57.17
2023-04-19T11:28:25.000Z,57.5
2023-04-19T11:29:29.000Z,56.89
2023-04-19T11:30:33.000Z,59.92
2023-04-19T11:31:37.000Z,60.38
2023-04-19T11:32:41.000Z,59.53
2023-04-19T11:33:45.000Z,56.88
2023-04-19T11:34:49.000Z,57.19
2023-04-19T11:35:54.000Z,57.75
2023-04-19T11:36:57.000Z,58.8
2023-04-19T11:38:01.000Z,56.96
2023-04-19T11:39:05.000Z,57.37
2023-04-19T11:40:10.000Z,59.85
2023-04-19T11:41:14.000Z,59.44
2023-04-19T11:42:18.000Z,60.16
2023-04-19T11:43:22.000Z,60.77
2023-04-19T11:44:26.000Z,60.36
2023-04-19T11:45:30.000Z,59.85
2023-04-19T11:46:34.000Z,59.03
2023-04-19T11:47:38.000Z,58.45
2023-04-19T11:48:42.000Z,57.84
2023-04-19T11:49:46.000Z,57.4
2023-04-19T11:50:50.000Z,57.93
2023-04-19T11:51:54.000Z,57.7
2023-04-19T11:52:58.000Z,58.42
2023-04-19T11:54:01.000Z,57.29
2023-04-19T11:55:05.000Z,57.5
2023-04-19T11:56:09.000Z,58.91
2023-04-19T11:57:13.000Z,57.62
2023-04-19T11:58:17.000Z,57.12
2023-04-19T11:59:21.000Z,56.35
2023-04-19T12:00:26.000Z,54.92
2023-04-19T12:01:30.000Z,54.72
2023-04-19T12:02:34.000Z,54.33
2023-04-19T12:03:38.000Z,56.84
2023-04-19T12:04:42.000Z,58.06
2023-04-19T12:05:46.000Z,59.28
2023-04-19T12:06:50.000Z,60.71
2023-04-19T12:07:54.000Z,60.3
2023-04-19T12:08:58.000Z,59.39
2023-04-19T12:10:02.000Z,59.14
2023-04-19T12:11:06.000Z,61.49
2023-04-19T12:12:10.000Z,60.57
2023-04-19T12:13:14.000Z,61.0
2023-04-19T12:14:18.000Z,60.87
2023-04-19T12:15:22.000Z,58.55
2023-04-19T12:16:26.000Z,60.05
2023-04-19T12:17:30.000Z,59.85
2023-04-19T12:18:34.000Z,59.49
2023-04-19T12:19:38.000Z,56.73
2023-04-19T12:20:42.000Z,59.81
2023-04-19T12:21:46.000Z,58.33
2023-04-19T12:22:50.000Z,57.03
2023-04-19T12:23:54.000Z,58.09
2023-04-19T12:24:58.000Z,55.18
2023-04-19T12:26:03.000Z,54.79
2023-04-19T12:27:07.000Z,53.7
2023-04-19T12:28:11.000Z,53.34
2023-04-19T12:29:15.000Z,55.41
2023-04-19T12:30:19.000Z,56.6
2023-04-19T12:31:23.000Z,54.05
2023-04-19T12:32:26.000Z,55.58
2023-04-19T12:33:31.000Z,57.46
2023-04-19T12:34:35.000Z,55.99
2023-04-19T12:35:39.000Z,55.81
2023-04-19T12:36:43.000Z,54.72
2023-04-19T12:37:46.000Z,55.35
2023-04-19T12:38:51.000Z,57.45
2023-04-19T12:39:55.000Z,58.29
2023-04-19T12:40:59.000Z,58.8
2023-04-19T12:42:03.000Z,59.11
2023-04-19T12:43:07.000Z,58.09
2023-04-19T12:44:11.000Z,55.66
2023-04-19T12:45:15.000Z,57.29
2023-04-19T12:46:19.000Z,57.81
2023-04-19T12:47:23.000Z,58.52
2023-04-19T12:48:27.000Z,57.91
2023-04-19T12:49:31.000Z,57.91
2023-04-19T12:50:35.000Z,58.32
2023-04-19T12:51:39.000Z,58.19
2023-04-19T12:52:48.000Z,59.14
2023-04-19T12:53:52.000Z,59.11
2023-04-19T12:54:56.000Z,56.99
2023-04-19T12:56:00.000Z,57.5
2023-04-19T12:57:04.000Z,57.34
2023-04-19T12:58:08.000Z,57.55
2023-04-19T12:59:12.000Z,56.32
2023-04-19T13:00:16.000Z,58.06
2023-04-19T13:01:20.000Z,56.6
2023-04-19T13:02:24.000Z,54.28
2023-04-19T13:03:28.000Z,56.32
2023-04-19T13:04:32.000Z,54.59
2023-04-19T13:05:36.000Z,56.1
2023-04-19T13:06:40.000Z,55.99
2023-04-19T13:07:44.000Z,56.17
2023-04-19T13:08:48.000Z,58.11
2023-04-19T13:09:52.000Z,56.48
2023-04-19T13:10:56.000Z,55.58
2023-04-19T13:12:00.000Z,59.08
2023-04-19T13:13:04.000Z,58.64
2023-04-19T13:14:08.000Z,57.78
2023-04-19T13:15:12.000Z,58.5
2023-04-19T13:16:16.000Z,59.18
2023-04-19T13:17:20.000Z,59.56
2023-04-19T13:18:24.000Z,59.1
2023-04-19T13:19:28.000Z,57.47
2023-04-19T13:20:32.000Z,58.76
2023-04-19T13:21:36.000Z,57.82
2023-04-19T13:22:40.000Z,55.86
2023-04-19T13:23:44.000Z,57.56
2023-04-19T13:24:48.000Z,56.27
2023-04-19T13:25:52.000Z,56.57
2023-04-19T13:26:56.000Z,57.9
2023-04-19T13:28:00.000Z,57.21
2023-04-19T13:29:04.000Z,56.02
2023-04-19T13:30:08.000Z,56.96
2023-04-19T13:31:12.000Z,55.66
2023-04-19T13:32:16.000Z,55.87
2023-04-19T13:33:20.000Z,56.5
2023-04-19T13:34:24.000Z,55.48
2023-04-19T13:35:28.000Z,57.01
2023-04-19T13:36:32.000Z,55.1
2023-04-19T13:37:36.000Z,57.24
2023-04-19T13:38:40.000Z,56.76
2023-04-19T13:39:45.000Z,57.09
2023-04-19T13:40:49.000Z,57.88
2023-04-19T13:41:53.000Z,57.5
2023-04-19T13:42:57.000Z,58.42
2023-04-19T13:44:01.000Z,57.17
2023-04-19T13:45:05.000Z,56.79
2023-04-19T13:46:09.000Z,59.64